createdAt,value
2023-07-25T00:00:44.831Z,3.10
2023-07-25T00:03:12.202Z,3.38
2023-07-25T00:05:39.430Z,3.20
2023-07-25T00:08:06.766Z,2.50
2023-07-25T00:10:35.204Z,2.90
2023-07-25T00:13:02.556Z,3.20
2023-07-25T00:15:29.830Z,3.08
2023-07-25T00:17:58.198Z,2.72
2023-07-25T00:20:25.622Z,2.75
2023-07-25T00:22:53.002Z,3.03
2023-07-25T00:25:20.454Z,3.00
2023-07-25T00:27:47.816Z,3.47
2023-07-25T00:30:15.235Z,2.47
2023-07-25T00:32:42.852Z,2.97
2023-07-25T00:35:10.204Z,2.80
2023-07-25T00:37:37.525Z,2.78
2023-07-25T00:40:05.208Z,3.00
2023-07-25T00:42:32.643Z,3.53
2023-07-25T00:45:00.088Z,2.60
2023-07-25T00:47:27.473Z,2.83
2023-07-25T00:49:54.932Z,2.65
2023-07-25T00:52:22.266Z,2.83
2023-07-25T00:54:50.658Z,2.80
2023-07-25T00:57:18.627Z,3.33
2023-07-25T00:59:46.000Z,2.77
2023-07-25T01:02:14.150Z,3.15
2023-07-25T01:04:41.409Z,2.83
2023-07-25T01:07:08.819Z,3.13
2023-07-25T01:09:40.656Z,2.60
2023-07-25T01:12:08.372Z,2.50
2023-07-25T01:14:35.750Z,3.08
2023-07-25T01:17:13.609Z,2.30
2023-07-25T01:19:42.708Z,2.45
2023-07-25T01:22:10.188Z,2.53
2023-07-25T01:24:38.503Z,2.97
2023-07-25T01:27:06.121Z,2.30
2023-07-25T01:29:33.445Z,2.97
2023-07-25T01:32:00.785Z,2.88
2023-07-25T01:34:28.137Z,2.45
2023-07-25T01:36:55.455Z,2.70
2023-07-25T01:39:22.891Z,2.70
2023-07-25T01:41:50.141Z,2.90
2023-07-25T01:44:17.433Z,3.05
2023-07-25T01:46:44.732Z,2.78
2023-07-25T01:49:12.944Z,3.00
2023-07-25T01:51:40.256Z,2.65
2023-07-25T01:54:07.622Z,2.30
2023-07-25T01:56:35.256Z,2.42
2023-07-25T01:59:02.615Z,2.53
2023-07-25T02:01:30.968Z,3.07
2023-07-25T02:03:58.872Z,2.22
2023-07-25T02:06:26.111Z,2.25
2023-07-25T02:08:53.442Z,2.15
2023-07-25T02:11:20.728Z,2.33
2023-07-25T02:13:48.051Z,2.70
2023-07-25T02:16:15.339Z,2.47
2023-07-25T02:18:42.740Z,2.58
2023-07-25T02:21:09.991Z,2.40
2023-07-25T02:23:37.328Z,2.60
2023-07-25T02:26:04.663Z,3.07
2023-07-25T02:28:31.984Z,2.45
2023-07-25T02:30:59.475Z,3.00
2023-07-25T02:33:27.091Z,2.70
2023-07-25T02:35:54.374Z,2.65
2023-07-25T02:38:21.777Z,2.60
2023-07-25T02:40:49.041Z,2.92
2023-07-25T02:43:16.365Z,2.50
2023-07-25T02:45:43.631Z,3.05
2023-07-25T02:48:11.044Z,2.70
2023-07-25T02:50:38.292Z,2.73
2023-07-25T02:53:05.620Z,2.55
2023-07-25T02:55:32.882Z,2.50
2023-07-25T02:58:00.266Z,3.08
2023-07-25T03:00:27.544Z,2.92
2023-07-25T03:02:54.906Z,2.67
2023-07-25T03:05:22.520Z,2.80
2023-07-25T03:07:49.903Z,2.95
2023-07-25T03:10:17.188Z,3.00
2023-07-25T03:12:44.541Z,2.63
2023-07-25T03:15:11.816Z,2.60
2023-07-25T03:17:39.241Z,2.97
2023-07-25T03:20:08.018Z,2.50
2023-07-25T03:22:35.507Z,2.75
2023-07-25T03:25:03.324Z,3.03
2023-07-25T03:27:30.801Z,3.20
2023-07-25T03:29:58.085Z,3.03
2023-07-25T03:32:25.472Z,3.65
2023-07-25T03:34:52.780Z,2.72
2023-07-25T03:37:20.142Z,2.70
2023-07-25T03:39:47.605Z,2.80
2023-07-25T03:42:14.900Z,3.25
2023-07-25T03:44:42.165Z,3.20
2023-07-25T03:47:09.549Z,2.63
2023-07-25T03:49:36.845Z,2.75
2023-07-25T03:52:04.328Z,3.10
2023-07-25T03:54:31.772Z,3.05
2023-07-25T03:56:59.157Z,2.85
2023-07-25T03:59:26.412Z,3.08
2023-07-25T04:01:53.789Z,2.88
2023-07-25T04:04:21.134Z,3.43
2023-07-25T04:06:48.566Z,2.40
2023-07-25T04:09:15.791Z,3.08
2023-07-25T04:11:43.166Z,2.70
2023-07-25T04:14:10.461Z,3.42
2023-07-25T04:16:37.927Z,3.50
2023-07-25T04:19:05.342Z,3.45
2023-07-25T04:21:33.088Z,2.92
2023-07-25T04:24:00.551Z,3.20
2023-07-25T04:26:27.954Z,3.28
2023-07-25T04:28:55.268Z,3.23
2023-07-25T04:31:22.607Z,3.20
2023-07-25T04:33:50.270Z,3.00
2023-07-25T04:36:17.712Z,3.05
2023-07-25T04:38:45.009Z,3.20
2023-07-25T04:41:12.357Z,3.50
2023-07-25T04:43:39.610Z,3.25
2023-07-25T04:46:06.976Z,3.38
2023-07-25T04:48:34.261Z,3.47
2023-07-25T04:51:02.299Z,3.95
2023-07-25T04:53:29.568Z,3.67
2023-07-25T04:55:56.937Z,3.58
2023-07-25T04:58:24.165Z,3.45
2023-07-25T05:00:51.462Z,2.88
2023-07-25T05:03:18.964Z,3.20
2023-07-25T05:05:46.425Z,4.20
2023-07-25T05:08:13.991Z,3.70
2023-07-25T05:10:42.266Z,3.75
2023-07-25T05:13:09.573Z,4.00
2023-07-25T05:15:38.769Z,3.47
2023-07-25T05:18:06.016Z,3.23
2023-07-25T05:20:33.307Z,3.85
2023-07-25T05:23:00.521Z,3.80
2023-07-25T05:25:27.854Z,3.78
2023-07-25T05:27:55.188Z,3.75
2023-07-25T05:30:22.555Z,3.53
2023-07-25T05:32:50.693Z,3.63
2023-07-25T05:35:18.149Z,3.10
2023-07-25T05:37:45.458Z,3.30
2023-07-25T05:40:12.870Z,3.58
2023-07-25T05:42:40.141Z,4.43
2023-07-25T05:45:08.035Z,4.25
2023-07-25T05:47:35.362Z,3.75
2023-07-25T05:50:02.710Z,3.92
2023-07-25T05:52:29.976Z,3.75
2023-07-25T05:54:57.342Z,3.23
2023-07-25T05:57:24.637Z,4.68
2023-07-25T05:59:52.063Z,4.18
2023-07-25T06:02:19.343Z,3.58
2023-07-25T06:04:47.547Z,3.80
2023-07-25T06:07:15.419Z,3.13
2023-07-25T06:09:42.804Z,3.10
2023-07-25T06:12:10.315Z,3.47
2023-07-25T06:14:37.884Z,3.47
2023-07-25T06:17:05.360Z,3.20
2023-07-25T06:19:32.779Z,3.10
2023-07-25T06:22:00.062Z,3.75
2023-07-25T06:24:27.505Z,3.22
2023-07-25T06:26:54.721Z,3.80
2023-07-25T06:29:22.030Z,3.75
2023-07-25T06:31:49.372Z,3.33
2023-07-25T06:34:16.812Z,3.40
2023-07-25T06:36:44.315Z,3.67
2023-07-25T06:39:11.811Z,3.60
2023-07-25T06:41:39.906Z,4.13
2023-07-25T06:44:15.209Z,3.63
2023-07-25T06:46:42.865Z,3.42
2023-07-25T06:49:10.107Z,3.17
2023-07-25T06:51:37.457Z,3.33
2023-07-25T06:54:04.921Z,3.60
2023-07-25T06:56:32.215Z,3.87
2023-07-25T06:59:00.146Z,3.38
2023-07-25T07:01:29.527Z,3.95
2023-07-25T07:03:57.281Z,4.03
2023-07-25T07:06:24.630Z,3.75
2023-07-25T07:08:51.929Z,4.23
2023-07-25T07:11:19.401Z,4.00
2023-07-25T07:13:46.682Z,3.92
2023-07-25T07:16:14.103Z,4.13
2023-07-25T07:18:41.426Z,3.65
2023-07-25T07:21:09.102Z,4.13
2023-07-25T07:23:36.360Z,3.75
2023-07-25T07:26:03.761Z,3.78
2023-07-25T07:28:31.169Z,3.85
2023-07-25T07:30:59.284Z,3.92
2023-07-25T07:33:27.490Z,4.13
2023-07-25T07:35:54.803Z,3.85
2023-07-25T07:38:22.270Z,3.88
2023-07-25T07:40:49.751Z,3.60
2023-07-25T07:43:17.179Z,3.50
2023-07-25T07:45:44.485Z,3.80
2023-07-25T07:48:11.879Z,3.78
2023-07-25T07:50:39.233Z,3.63
2023-07-25T07:53:06.515Z,3.85
2023-07-25T07:55:34.307Z,3.97
2023-07-25T07:58:01.560Z,4.17
2023-07-25T08:00:29.068Z,3.40
2023-07-25T08:02:56.410Z,4.57
2023-07-25T08:05:23.925Z,4.20
2023-07-25T08:07:51.265Z,3.72
2023-07-25T08:10:19.126Z,4.20
2023-07-25T08:12:46.464Z,4.50
2023-07-25T08:15:14.005Z,4.45
2023-07-25T08:17:41.356Z,5.38
2023-07-25T08:20:09.048Z,4.40
2023-07-25T08:22:36.346Z,4.10
2023-07-25T08:25:03.760Z,4.60
2023-07-25T08:27:31.233Z,4.47
2023-07-25T08:29:58.588Z,4.90
2023-07-25T08:32:27.169Z,4.72
2023-07-25T08:34:54.589Z,4.10
2023-07-25T08:37:21.839Z,4.30
2023-07-25T08:39:49.316Z,4.03
2023-07-25T08:42:16.617Z,4.60
2023-07-25T08:44:43.904Z,4.68
2023-07-25T08:47:21.047Z,4.53
2023-07-25T08:49:51.080Z,3.60
2023-07-25T08:52:19.092Z,4.00
2023-07-25T08:54:47.086Z,4.55
2023-07-25T08:57:14.755Z,4.00
2023-07-25T08:59:42.122Z,4.07
2023-07-25T09:02:10.359Z,4.25
2023-07-25T09:04:37.648Z,4.32
2023-07-25T09:07:05.374Z,4.00
2023-07-25T09:09:32.613Z,3.35
2023-07-25T09:11:59.887Z,3.90
2023-07-25T09:14:27.189Z,3.90
2023-07-25T09:16:55.092Z,3.60
2023-07-25T09:19:22.361Z,3.55
2023-07-25T09:21:50.813Z,3.90
2023-07-25T09:24:18.276Z,3.87
2023-07-25T09:26:52.251Z,4.15
2023-07-25T09:29:21.968Z,2.88
2023-07-25T09:31:50.135Z,3.60
2023-07-25T09:34:20.548Z,3.72
2023-07-25T09:36:48.921Z,3.80
2023-07-25T09:39:17.255Z,3.35
2023-07-25T09:41:46.629Z,3.47
2023-07-25T09:44:14.363Z,3.72
2023-07-25T09:46:54.439Z,3.47
2023-07-25T09:49:23.886Z,3.40
2023-07-25T09:52:01.118Z,3.88
2023-07-25T09:54:28.489Z,3.92
2023-07-25T09:56:55.741Z,3.95
2023-07-25T09:59:23.747Z,3.30
2023-07-25T10:01:55.238Z,4.10
2023-07-25T10:04:22.636Z,3.95
2023-07-25T10:06:49.836Z,4.25
2023-07-25T10:09:17.231Z,4.38
2023-07-25T10:11:44.541Z,4.07
2023-07-25T10:14:11.878Z,3.53
2023-07-25T10:16:39.312Z,3.80
2023-07-25T10:19:07.192Z,3.90
2023-07-25T10:21:47.868Z,4.47
2023-07-25T10:24:15.451Z,4.53
2023-07-25T10:26:58.911Z,3.70
2023-07-25T10:29:39.357Z,4.03
2023-07-25T10:32:09.566Z,4.47
2023-07-25T10:34:53.240Z,4.70
2023-07-25T10:37:21.494Z,4.18
2023-07-25T10:40:02.331Z,4.57
2023-07-25T10:43:00.000Z,4.47
2023-07-25T10:45:32.760Z,4.82
2023-07-25T10:48:01.563Z,4.70
2023-07-25T10:50:29.676Z,4.90
2023-07-25T10:52:56.900Z,4.67
2023-07-25T10:55:24.362Z,3.83
2023-07-25T10:58:10.590Z,4.53
2023-07-25T11:00:38.461Z,4.53
2023-07-25T11:03:26.362Z,4.53
2023-07-25T11:05:53.783Z,4.40
2023-07-25T11:08:21.010Z,4.05
2023-07-25T11:10:49.086Z,4.07
2023-07-25T11:13:16.446Z,4.72
2023-07-25T11:15:47.171Z,5.00
2023-07-25T11:18:15.252Z,4.97
2023-07-25T11:20:42.561Z,4.60
2023-07-25T11:23:09.888Z,5.93
2023-07-25T11:25:37.110Z,5.95
2023-07-25T11:28:04.528Z,5.40
2023-07-25T11:30:31.851Z,5.30
2023-07-25T11:32:59.284Z,7.28
2023-07-25T11:35:26.822Z,6.13
2023-07-25T11:38:01.771Z,6.45
2023-07-25T11:40:29.828Z,5.72
2023-07-25T11:42:57.513Z,5.23
2023-07-25T11:45:25.622Z,4.57
2023-07-25T11:47:53.010Z,4.32
2023-07-25T11:50:26.360Z,4.55
2023-07-25T11:52:57.565Z,4.50
2023-07-25T11:55:26.047Z,4.03
2023-07-25T11:57:53.641Z,4.20
2023-07-25T12:00:21.606Z,3.65
2023-07-25T12:02:48.975Z,4.00
2023-07-25T12:05:27.687Z,3.65
2023-07-25T12:07:59.476Z,3.53
2023-07-25T12:10:27.819Z,3.30
2023-07-25T12:12:56.335Z,3.83
2023-07-25T12:15:24.658Z,4.03
2023-07-25T12:17:52.090Z,3.50
2023-07-25T12:20:23.731Z,3.77
2023-07-25T12:22:51.038Z,3.72
2023-07-25T12:25:19.262Z,3.70
2023-07-25T12:27:48.067Z,3.90
2023-07-25T12:30:15.752Z,3.42
2023-07-25T12:32:43.165Z,3.70
2023-07-25T12:35:11.915Z,3.60
2023-07-25T12:37:39.299Z,3.67
2023-07-25T12:40:07.150Z,3.30
2023-07-25T12:42:34.487Z,3.72
2023-07-25T12:45:09.475Z,3.87
2023-07-25T12:47:38.290Z,3.50
2023-07-25T12:50:05.897Z,3.60
2023-07-25T12:52:33.255Z,4.32
2023-07-25T12:55:00.632Z,4.20
2023-07-25T12:57:30.590Z,3.57
2023-07-25T12:59:57.944Z,4.45
2023-07-25T13:02:25.274Z,3.83
2023-07-25T13:04:52.875Z,4.35
2023-07-25T13:07:20.225Z,4.57
2023-07-25T13:09:47.614Z,4.50
2023-07-25T13:12:14.898Z,4.28
2023-07-25T13:14:42.351Z,5.30
2023-07-25T13:17:09.755Z,4.78
2023-07-25T13:19:37.093Z,4.60
2023-07-25T13:22:04.472Z,4.53
2023-07-25T13:24:31.773Z,4.68
2023-07-25T13:26:59.082Z,4.10
2023-07-25T13:29:26.446Z,4.60
2023-07-25T13:31:53.740Z,4.63
2023-07-25T13:34:21.095Z,4.10
2023-07-25T13:36:48.339Z,4.72
2023-07-25T13:39:15.688Z,4.10
2023-07-25T13:41:43.189Z,4.30
2023-07-25T13:44:10.564Z,4.28
2023-07-25T13:46:37.861Z,3.90
2023-07-25T13:49:05.192Z,4.00
2023-07-25T13:51:32.661Z,3.67
2023-07-25T13:54:00.232Z,4.00
2023-07-25T13:56:27.477Z,3.65
2023-07-25T13:58:54.753Z,4.17
2023-07-25T14:01:22.053Z,3.63
2023-07-25T14:03:49.390Z,3.50
2023-07-25T14:06:16.605Z,3.20
2023-07-25T14:08:43.976Z,3.38
2023-07-25T14:11:11.182Z,3.43
2023-07-25T14:13:38.538Z,3.78
2023-07-25T14:16:06.742Z,3.42
2023-07-25T14:18:34.179Z,3.80
2023-07-25T14:21:01.549Z,3.25
2023-07-25T14:23:28.935Z,3.50
2023-07-25T14:25:56.203Z,3.63
2023-07-25T14:28:23.594Z,3.40
2023-07-25T14:30:51.092Z,3.45
2023-07-25T14:33:21.619Z,3.03
2023-07-25T14:35:49.225Z,3.10
2023-07-25T14:38:16.475Z,3.58
2023-07-25T14:40:43.768Z,3.78
2023-07-25T14:43:10.960Z,3.22
2023-07-25T14:45:38.377Z,3.60
2023-07-25T14:48:05.994Z,3.53
2023-07-25T14:50:33.804Z,3.50
2023-07-25T14:53:01.062Z,3.30
2023-07-25T14:55:28.738Z,3.45
2023-07-25T14:57:56.096Z,3.70
2023-07-25T15:00:23.457Z,3.40
2023-07-25T15:02:50.894Z,3.78
2023-07-25T15:05:18.432Z,3.40
2023-07-25T15:07:45.830Z,3.15
2023-07-25T15:10:13.193Z,3.30
2023-07-25T15:12:40.473Z,2.67
2023-07-25T15:15:08.405Z,3.00
2023-07-25T15:17:36.506Z,3.10
2023-07-25T15:20:05.146Z,2.85
2023-07-25T15:22:32.598Z,2.80
2023-07-25T15:25:00.027Z,2.60
2023-07-25T15:27:28.162Z,2.83
2023-07-25T15:29:55.719Z,2.45
2023-07-25T15:32:23.033Z,2.53
2023-07-25T15:34:50.562Z,2.60
2023-07-25T15:37:17.864Z,2.43
2023-07-25T15:39:45.410Z,2.60
2023-07-25T15:42:13.052Z,2.70
2023-07-25T15:44:40.508Z,2.25
2023-07-25T15:47:07.770Z,2.30
2023-07-25T15:49:35.088Z,2.20
2023-07-25T15:52:02.347Z,2.10
2023-07-25T15:54:29.737Z,2.25
2023-07-25T15:56:57.420Z,2.40
2023-07-25T15:59:25.460Z,2.35
2023-07-25T16:01:53.933Z,1.80
2023-07-25T16:04:21.559Z,2.00
2023-07-25T16:06:49.020Z,2.03
2023-07-25T16:09:16.358Z,1.95
2023-07-25T16:11:43.648Z,1.80
2023-07-25T16:14:10.965Z,2.10
2023-07-25T16:16:38.411Z,2.50
2023-07-25T16:19:05.884Z,2.30
2023-07-25T16:21:33.653Z,2.13
2023-07-25T16:24:02.052Z,2.00
2023-07-25T16:26:29.326Z,2.07
2023-07-25T16:28:56.594Z,1.80
2023-07-25T16:31:32.462Z,2.75
2023-07-25T16:34:00.478Z,2.33
2023-07-25T16:36:27.690Z,2.10
2023-07-25T16:38:55.031Z,2.07
2023-07-25T16:41:22.638Z,2.08
2023-07-25T16:43:50.087Z,1.65
2023-07-25T16:46:17.369Z,2.25
2023-07-25T16:48:44.889Z,2.13
2023-07-25T16:51:12.205Z,1.77
2023-07-25T16:53:39.571Z,1.70
2023-07-25T16:56:06.972Z,2.05
2023-07-25T16:58:34.814Z,2.00
2023-07-25T17:01:02.688Z,2.05
2023-07-25T17:03:30.370Z,2.17
2023-07-25T17:05:57.724Z,2.00
2023-07-25T17:08:25.102Z,2.13
2023-07-25T17:10:52.459Z,2.50
2023-07-25T17:13:20.980Z,2.22
2023-07-25T17:15:48.433Z,2.20
2023-07-25T17:18:15.841Z,2.20
2023-07-25T17:20:43.128Z,2.30
2023-07-25T17:23:11.761Z,2.42
2023-07-25T17:25:39.822Z,2.22
2023-07-25T17:28:07.129Z,2.30
2023-07-25T17:30:34.504Z,2.10
2023-07-25T17:33:02.192Z,2.10
2023-07-25T17:35:37.643Z,2.30
2023-07-25T17:38:06.207Z,2.28
2023-07-25T17:40:33.469Z,2.00
2023-07-25T17:43:00.872Z,2.45
2023-07-25T17:45:28.194Z,2.55
2023-07-25T17:47:55.592Z,2.30
2023-07-25T17:50:22.886Z,2.10
2023-07-25T17:52:50.263Z,2.10
2023-07-25T17:55:17.521Z,2.40
2023-07-25T17:57:44.940Z,2.10
2023-07-25T18:00:12.662Z,1.98
2023-07-25T18:02:40.196Z,2.28
2023-07-25T18:05:07.776Z,2.27
2023-07-25T18:07:35.263Z,2.35
2023-07-25T18:10:02.646Z,2.42
2023-07-25T18:12:30.038Z,2.30
2023-07-25T18:14:57.338Z,2.33
2023-07-25T18:17:24.738Z,2.10
2023-07-25T18:19:52.088Z,2.22
2023-07-25T18:22:19.403Z,2.33
2023-07-25T18:24:46.661Z,2.53
2023-07-25T18:27:14.069Z,2.00
2023-07-25T18:29:41.370Z,2.20
2023-07-25T18:32:08.907Z,2.60
2023-07-25T18:34:36.119Z,2.28
2023-07-25T18:37:03.757Z,2.20
2023-07-25T18:39:31.000Z,2.47
2023-07-25T18:41:58.465Z,2.70
2023-07-25T18:44:25.754Z,2.97
2023-07-25T18:46:53.277Z,2.50
2023-07-25T18:49:20.595Z,2.90
2023-07-25T18:51:47.995Z,3.20
2023-07-25T18:54:15.329Z,2.63
2023-07-25T18:56:42.734Z,3.08
2023-07-25T18:59:10.061Z,3.00
2023-07-25T19:01:37.439Z,3.08
2023-07-25T19:04:04.915Z,3.10
2023-07-25T19:06:32.481Z,2.73
2023-07-25T19:09:00.215Z,3.30
2023-07-25T19:11:27.861Z,2.63
2023-07-25T19:13:55.124Z,2.20
2023-07-25T19:16:22.591Z,2.28
2023-07-25T19:18:49.853Z,2.80
2023-07-25T19:21:17.332Z,2.83
2023-07-25T19:23:44.819Z,2.90
2023-07-25T19:26:12.146Z,2.65
2023-07-25T19:28:39.680Z,2.55
2023-07-25T19:31:07.407Z,3.20
2023-07-25T19:33:34.742Z,2.90
2023-07-25T19:36:02.215Z,2.92
2023-07-25T19:38:29.785Z,3.17
2023-07-25T19:40:57.153Z,3.08
2023-07-25T19:43:24.672Z,2.97
2023-07-25T19:45:56.141Z,2.80
2023-07-25T19:48:23.580Z,2.65
2023-07-25T19:50:50.964Z,2.88
2023-07-25T19:53:19.509Z,2.70
2023-07-25T19:55:54.672Z,2.83
2023-07-25T19:58:22.106Z,2.78
2023-07-25T20:00:49.475Z,2.85
2023-07-25T20:03:17.020Z,2.97
2023-07-25T20:05:44.554Z,2.92
2023-07-25T20:08:11.970Z,2.70
2023-07-25T20:10:39.322Z,2.75
2023-07-25T20:13:07.333Z,3.00
2023-07-25T20:15:34.753Z,2.90
2023-07-25T20:18:02.188Z,3.17
2023-07-25T20:20:29.451Z,3.07
2023-07-25T20:22:56.764Z,3.00
2023-07-25T20:25:24.172Z,3.25
2023-07-25T20:27:51.494Z,3.17
2023-07-25T20:30:18.719Z,4.00
2023-07-25T20:32:46.091Z,3.10
2023-07-25T20:35:13.536Z,3.17
2023-07-25T20:37:40.948Z,3.47
2023-07-25T20:40:09.764Z,3.03
2023-07-25T20:42:37.530Z,3.55
2023-07-25T20:45:05.144Z,3.73
2023-07-25T20:47:34.559Z,3.55
2023-07-25T20:50:01.944Z,3.17
2023-07-25T20:52:29.256Z,3.60
2023-07-25T20:54:56.488Z,3.60
2023-07-25T20:57:23.845Z,4.00
2023-07-25T20:59:51.122Z,3.80
2023-07-25T21:02:18.421Z,3.70
2023-07-25T21:04:45.611Z,3.42
2023-07-25T21:07:13.017Z,4.07
2023-07-25T21:09:40.310Z,4.43
2023-07-25T21:12:08.062Z,3.80
2023-07-25T21:14:35.277Z,3.70
2023-07-25T21:17:02.727Z,3.95
2023-07-25T21:19:29.920Z,3.90
2023-07-25T21:21:57.286Z,3.97
2023-07-25T21:24:24.602Z,3.30
2023-07-25T21:26:51.986Z,3.50
2023-07-25T21:29:19.306Z,3.80
2023-07-25T21:31:46.711Z,3.78
2023-07-25T21:34:14.130Z,3.40
2023-07-25T21:36:42.622Z,3.80
2023-07-25T21:39:10.027Z,3.63
2023-07-25T21:41:37.466Z,3.58
2023-07-25T21:44:04.897Z,3.40
2023-07-25T21:46:32.452Z,3.03
2023-07-25T21:49:02.709Z,3.13
2023-07-25T21:51:30.048Z,3.53
2023-07-25T21:53:57.334Z,3.38
2023-07-25T21:56:24.833Z,3.38
2023-07-25T21:58:52.097Z,3.10
2023-07-25T22:01:19.458Z,3.45
2023-07-25T22:03:46.748Z,3.20
2023-07-25T22:06:14.133Z,2.90
2023-07-25T22:08:41.413Z,3.13
2023-07-25T22:11:08.740Z,3.00
2023-07-25T22:13:36.067Z,2.95
2023-07-25T22:16:03.939Z,3.15
2023-07-25T22:18:31.300Z,3.13
2023-07-25T22:20:59.815Z,3.25
2023-07-25T22:23:27.102Z,3.37
2023-07-25T22:26:01.421Z,3.08
2023-07-25T22:28:29.020Z,3.10
2023-07-25T22:30:56.298Z,3.20
2023-07-25T22:33:23.652Z,3.25
2023-07-25T22:35:50.872Z,2.80
2023-07-25T22:38:18.188Z,3.10
2023-07-25T22:40:46.060Z,3.20
2023-07-25T22:43:13.437Z,3.40
2023-07-25T22:45:40.727Z,3.10
2023-07-25T22:48:08.035Z,2.97
2023-07-25T22:50:35.316Z,3.03
2023-07-25T22:53:02.627Z,3.10
2023-07-25T22:55:29.934Z,2.80
2023-07-25T22:57:57.290Z,3.30
2023-07-25T23:00:24.691Z,3.07
2023-07-25T23:05:19.694Z,3.17
2023-07-25T23:07:46.981Z,3.00
2023-07-25T23:10:14.304Z,3.13
2023-07-25T23:12:41.716Z,3.63
2023-07-25T23:15:14.499Z,3.55
2023-07-25T23:17:41.954Z,3.67
2023-07-25T23:20:09.670Z,3.28
2023-07-25T23:22:37.072Z,3.20
2023-07-25T23:25:04.756Z,3.37
2023-07-25T23:27:32.101Z,3.33
2023-07-25T23:29:59.941Z,3.63
2023-07-25T23:32:27.409Z,3.10
2023-07-25T23:34:55.298Z,3.15
2023-07-25T23:37:22.635Z,3.27
2023-07-25T23:39:49.879Z,3.10
2023-07-25T23:42:17.246Z,3.33
2023-07-25T23:44:44.467Z,2.65
2023-07-25T23:47:13.065Z,3.15
2023-07-25T23:49:40.532Z,3.50
2023-07-25T23:52:08.098Z,3.55
2023-07-25T23:54:35.363Z,3.40
2023-07-25T23:57:06.247Z,3.10
2023-07-25T23:59:33.685Z,3.63
